sensor_id;sensor_type;location;lat;lon;timestamp;P1;durP1;ratioP1;P2;durP2;ratioP2
14007;SDS011;61651;45.508;12.232;2023-04-03T00:02:30;6.97;;;5.28;;
14007;SDS011;61651;45.508;12.232;2023-04-03T00:05:32;7.30;;;5.80;;
14007;SDS011;61651;45.508;12.232;2023-04-03T00:08:36;7.00;;;5.20;;
14007;SDS011;61651;45.508;12.232;2023-04-03T00:11:38;6.78;;;5.53;;
14007;SDS011;61651;45.508;12.232;2023-04-03T00:14:40;8.27;;;5.55;;
14007;SDS011;61651;45.508;12.232;2023-04-03T00:17:42;5.35;;;4.80;;
14007;SDS011;61651;45.508;12.232;2023-04-03T00:20:44;7.20;;;5.93;;
14007;SDS011;61651;45.508;12.232;2023-04-03T00:23:48;7.80;;;6.18;;
14007;SDS011;61651;45.508;12.232;2023-04-03T00:26:50;6.30;;;5.70;;
14007;SDS011;61651;45.508;12.232;2023-04-03T00:29:52;7.03;;;5.65;;
14007;SDS011;61651;45.508;12.232;2023-04-03T00:32:54;6.38;;;4.95;;
14007;SDS011;61651;45.508;12.232;2023-04-03T00:35:56;6.90;;;5.57;;
14007;SDS011;61651;45.508;12.232;2023-04-03T00:38:59;7.18;;;5.18;;
14007;SDS011;61651;45.508;12.232;2023-04-03T00:42:01;6.22;;;5.63;;
14007;SDS011;61651;45.508;12.232;2023-04-03T00:48:35;7.63;;;5.72;;
14007;SDS011;61651;45.508;12.232;2023-04-03T00:51:40;4.97;;;4.40;;
14007;SDS011;61651;45.508;12.232;2023-04-03T00:54:44;7.22;;;4.60;;
14007;SDS011;61651;45.508;12.232;2023-04-03T00:57:48;5.15;;;4.70;;
14007;SDS011;61651;45.508;12.232;2023-04-03T01:00:52;5.05;;;4.53;;
14007;SDS011;61651;45.508;12.232;2023-04-03T01:03:59;5.68;;;4.72;;
14007;SDS011;61651;45.508;12.232;2023-04-03T01:07:03;4.85;;;4.07;;
14007;SDS011;61651;45.508;12.232;2023-04-03T01:10:09;5.07;;;4.05;;
14007;SDS011;61651;45.508;12.232;2023-04-03T01:13:18;4.88;;;4.35;;
14007;SDS011;61651;45.508;12.232;2023-04-03T01:16:21;3.95;;;3.65;;
14007;SDS011;61651;45.508;12.232;2023-04-03T01:19:23;5.60;;;4.25;;
14007;SDS011;61651;45.508;12.232;2023-04-03T01:22:26;3.95;;;3.58;;
14007;SDS011;61651;45.508;12.232;2023-04-03T01:25:36;4.20;;;3.20;;
14007;SDS011;61651;45.508;12.232;2023-04-03T01:28:39;4.60;;;3.10;;
14007;SDS011;61651;45.508;12.232;2023-04-03T01:31:45;3.55;;;3.25;;
14007;SDS011;61651;45.508;12.232;2023-04-03T01:34:51;4.50;;;3.63;;
14007;SDS011;61651;45.508;12.232;2023-04-03T01:37:53;3.92;;;3.30;;
14007;SDS011;61651;45.508;12.232;2023-04-03T01:40:55;3.80;;;3.40;;
14007;SDS011;61651;45.508;12.232;2023-04-03T01:43:57;3.95;;;3.42;;
14007;SDS011;61651;45.508;12.232;2023-04-03T01:47:01;3.30;;;3.00;;
14007;SDS011;61651;45.508;12.232;2023-04-03T01:50:03;5.13;;;3.20;;
14007;SDS011;61651;45.508;12.232;2023-04-03T01:53:05;3.40;;;3.10;;
14007;SDS011;61651;45.508;12.232;2023-04-03T01:56:07;2.95;;;2.60;;
14007;SDS011;61651;45.508;12.232;2023-04-03T01:59:09;4.18;;;2.63;;
14007;SDS011;61651;45.508;12.232;2023-04-03T02:02:13;3.83;;;2.58;;
14007;SDS011;61651;45.508;12.232;2023-04-03T02:05:16;3.55;;;2.22;;
14007;SDS011;61651;45.508;12.232;2023-04-03T02:08:18;2.75;;;1.92;;
14007;SDS011;61651;45.508;12.232;2023-04-03T02:11:20;2.30;;;2.10;;
14007;SDS011;61651;45.508;12.232;2023-04-03T02:14:22;2.17;;;1.98;;
14007;SDS011;61651;45.508;12.232;2023-04-03T02:17:25;2.67;;;1.88;;
14007;SDS011;61651;45.508;12.232;2023-04-03T02:20:27;1.98;;;1.88;;
14007;SDS011;61651;45.508;12.232;2023-04-03T02:23:29;2.42;;;1.98;;
14007;SDS011;61651;45.508;12.232;2023-04-03T02:26:31;2.45;;;2.20;;
14007;SDS011;61651;45.508;12.232;2023-04-03T02:29:33;2.58;;;2.25;;
14007;SDS011;61651;45.508;12.232;2023-04-03T02:32:37;2.72;;;2.40;;
14007;SDS011;61651;45.508;12.232;2023-04-03T02:35:39;3.45;;;1.98;;
14007;SDS011;61651;45.508;12.232;2023-04-03T02:38:41;2.67;;;2.38;;
14007;SDS011;61651;45.508;12.232;2023-04-03T02:41:43;2.85;;;2.20;;
14007;SDS011;61651;45.508;12.232;2023-04-03T02:44:45;3.50;;;2.40;;
14007;SDS011;61651;45.508;12.232;2023-04-03T02:47:48;2.67;;;2.47;;
14007;SDS011;61651;45.508;12.232;2023-04-03T02:50:50;3.78;;;2.47;;
14007;SDS011;61651;45.508;12.232;2023-04-03T02:53:52;4.43;;;2.90;;
14007;SDS011;61651;45.508;12.232;2023-04-03T02:56:54;3.08;;;2.55;;
14007;SDS011;61651;45.508;12.232;2023-04-03T02:59:57;4.75;;;3.10;;
14007;SDS011;61651;45.508;12.232;2023-04-03T03:03:00;3.28;;;2.97;;
14007;SDS011;61651;45.508;12.232;2023-04-03T03:06:03;3.78;;;3.40;;
14007;SDS011;61651;45.508;12.232;2023-04-03T03:09:05;5.35;;;3.90;;
14007;SDS011;61651;45.508;12.232;2023-04-03T03:12:07;5.10;;;3.72;;
14007;SDS011;61651;45.508;12.232;2023-04-03T03:15:10;6.25;;;4.30;;
14007;SDS011;61651;45.508;12.232;2023-04-03T03:18:13;5.93;;;4.38;;
14007;SDS011;61651;45.508;12.232;2023-04-03T03:21:15;4.93;;;4.43;;
14007;SDS011;61651;45.508;12.232;2023-04-03T03:24:17;4.85;;;4.35;;
14007;SDS011;61651;45.508;12.232;2023-04-03T03:27:19;6.15;;;4.32;;
14007;SDS011;61651;45.508;12.232;2023-04-03T03:30:21;5.10;;;4.60;;
14007;SDS011;61651;45.508;12.232;2023-04-03T03:33:25;8.07;;;4.18;;
14007;SDS011;61651;45.508;12.232;2023-04-03T03:36:27;5.88;;;3.95;;
14007;SDS011;61651;45.508;12.232;2023-04-03T03:39:29;5.68;;;4.75;;
14007;SDS011;61651;45.508;12.232;2023-04-03T03:42:31;4.85;;;4.18;;
14007;SDS011;61651;45.508;12.232;2023-04-03T03:45:33;6.72;;;4.45;;
14007;SDS011;61651;45.508;12.232;2023-04-03T03:48:36;5.78;;;4.60;;
14007;SDS011;61651;45.508;12.232;2023-04-03T03:51:38;4.68;;;4.05;;
14007;SDS011;61651;45.508;12.232;2023-04-03T03:54:40;4.22;;;3.75;;
14007;SDS011;61651;45.508;12.232;2023-04-03T03:57:42;4.25;;;3.83;;
14007;SDS011;61651;45.508;12.232;2023-04-03T04:00:44;8.35;;;4.15;;
14007;SDS011;61651;45.508;12.232;2023-04-03T04:03:48;4.47;;;3.72;;
14007;SDS011;61651;45.508;12.232;2023-04-03T04:06:50;8.07;;;4.18;;
14007;SDS011;61651;45.508;12.232;2023-04-03T04:09:52;5.28;;;3.60;;
14007;SDS011;61651;45.508;12.232;2023-04-03T04:12:53;4.50;;;3.70;;
14007;SDS011;61651;45.508;12.232;2023-04-03T04:15:55;5.95;;;3.80;;
14007;SDS011;61651;45.508;12.232;2023-04-03T04:18:59;5.03;;;4.10;;
14007;SDS011;61651;45.508;12.232;2023-04-03T04:22:01;4.55;;;4.03;;
14007;SDS011;61651;45.508;12.232;2023-04-03T04:25:03;8.53;;;4.20;;
14007;SDS011;61651;45.508;12.232;2023-04-03T04:28:05;5.87;;;3.70;;
14007;SDS011;61651;45.508;12.232;2023-04-03T04:31:07;8.65;;;4.20;;
14007;SDS011;61651;45.508;12.232;2023-04-03T04:34:11;4.57;;;3.42;;
14007;SDS011;61651;45.508;12.232;2023-04-03T04:37:14;4.70;;;3.40;;
14007;SDS011;61651;45.508;12.232;2023-04-03T04:40:15;4.87;;;3.87;;
14007;SDS011;61651;45.508;12.232;2023-04-03T04:43:17;3.33;;;3.03;;
14007;SDS011;61651;45.508;12.232;2023-04-03T04:46:20;6.45;;;3.30;;
14007;SDS011;61651;45.508;12.232;2023-04-03T04:49:23;5.63;;;3.50;;
14007;SDS011;61651;45.508;12.232;2023-04-03T04:52:25;5.10;;;3.30;;
14007;SDS011;61651;45.508;12.232;2023-04-03T04:55:27;5.67;;;3.70;;
14007;SDS011;61651;45.508;12.232;2023-04-03T04:58:29;3.45;;;3.15;;
14007;SDS011;61651;45.508;12.232;2023-04-03T05:01:31;4.00;;;3.43;;
14007;SDS011;61651;45.508;12.232;2023-04-03T05:04:34;7.03;;;3.77;;
14007;SDS011;61651;45.508;12.232;2023-04-03T05:07:36;7.83;;;3.50;;
14007;SDS011;61651;45.508;12.232;2023-04-03T05:10:38;3.10;;;2.77;;
14007;SDS011;61651;45.508;12.232;2023-04-03T05:13:41;4.82;;;3.50;;
14007;SDS011;61651;45.508;12.232;2023-04-03T05:16:43;3.90;;;3.40;;
14007;SDS011;61651;45.508;12.232;2023-04-03T05:19:46;5.90;;;3.53;;
14007;SDS011;61651;45.508;12.232;2023-04-03T05:22:48;5.07;;;3.53;;
14007;SDS011;61651;45.508;12.232;2023-04-03T05:25:50;7.90;;;3.40;;
14007;SDS011;61651;45.508;12.232;2023-04-03T05:28:53;6.15;;;3.03;;
14007;SDS011;61651;45.508;12.232;2023-04-03T05:31:55;4.83;;;3.00;;
14007;SDS011;61651;45.508;12.232;2023-04-03T05:34:58;4.57;;;3.08;;
14007;SDS011;61651;45.508;12.232;2023-04-03T05:38:00;3.97;;;3.10;;
14007;SDS011;61651;45.508;12.232;2023-04-03T05:41:02;4.40;;;2.50;;
14007;SDS011;61651;45.508;12.232;2023-04-03T05:44:04;3.97;;;2.90;;
14007;SDS011;61651;45.508;12.232;2023-04-03T05:47:06;9.63;;;2.50;;
14007;SDS011;61651;45.508;12.232;2023-04-03T05:50:10;7.27;;;2.77;;
14007;SDS011;61651;45.508;12.232;2023-04-03T05:53:12;2.53;;;2.23;;
14007;SDS011;61651;45.508;12.232;2023-04-03T05:56:19;2.78;;;2.00;;
14007;SDS011;61651;45.508;12.232;2023-04-03T05:59:21;6.53;;;2.42;;
14007;SDS011;61651;45.508;12.232;2023-04-03T06:02:23;2.95;;;1.70;;
14007;SDS011;61651;45.508;12.232;2023-04-03T06:05:27;2.13;;;1.83;;
14007;SDS011;61651;45.508;12.232;2023-04-03T06:08:29;3.30;;;2.20;;
14007;SDS011;61651;45.508;12.232;2023-04-03T06:11:31;2.70;;;1.95;;
14007;SDS011;61651;45.508;12.232;2023-04-03T06:14:33;3.10;;;2.13;;
14007;SDS011;61651;45.508;12.232;2023-04-03T06:17:35;6.17;;;2.00;;
14007;SDS011;61651;45.508;12.232;2023-04-03T06:20:39;2.60;;;1.75;;
14007;SDS011;61651;45.508;12.232;2023-04-03T06:23:41;2.65;;;2.10;;
14007;SDS011;61651;45.508;12.232;2023-04-03T06:26:43;3.20;;;1.80;;
14007;SDS011;61651;45.508;12.232;2023-04-03T06:29:45;2.92;;;1.75;;
14007;SDS011;61651;45.508;12.232;2023-04-03T06:32:48;2.10;;;1.80;;
14007;SDS011;61651;45.508;12.232;2023-04-03T06:35:56;4.38;;;1.90;;
14007;SDS011;61651;45.508;12.232;2023-04-03T06:38:59;3.55;;;1.80;;
14007;SDS011;61651;45.508;12.232;2023-04-03T06:42:03;2.28;;;1.73;;
14007;SDS011;61651;45.508;12.232;2023-04-03T06:45:05;3.20;;;1.52;;
14007;SDS011;61651;45.508;12.232;2023-04-03T06:48:09;2.85;;;1.95;;
14007;SDS011;61651;45.508;12.232;2023-04-03T06:51:16;7.55;;;1.95;;
14007;SDS011;61651;45.508;12.232;2023-04-03T06:54:20;3.85;;;1.60;;
14007;SDS011;61651;45.508;12.232;2023-04-03T06:57:22;3.35;;;1.75;;
14007;SDS011;61651;45.508;12.232;2023-04-03T07:00:24;3.97;;;2.00;;
14007;SDS011;61651;45.508;12.232;2023-04-03T07:03:26;1.77;;;1.55;;
14007;SDS011;61651;45.508;12.232;2023-04-03T07:06:30;3.55;;;1.65;;
14007;SDS011;61651;45.508;12.232;2023-04-03T07:09:33;2.53;;;1.50;;
14007;SDS011;61651;45.508;12.232;2023-04-03T07:12:36;3.08;;;1.77;;
14007;SDS011;61651;45.508;12.232;2023-04-03T07:15:38;6.10;;;2.28;;
14007;SDS011;61651;45.508;12.232;2023-04-03T07:18:40;6.93;;;1.83;;
14007;SDS011;61651;45.508;12.232;2023-04-03T07:21:44;4.68;;;1.60;;
14007;SDS011;61651;45.508;12.232;2023-04-03T07:24:46;4.05;;;1.80;;
14007;SDS011;61651;45.508;12.232;2023-04-03T07:27:48;4.43;;;1.95;;
14007;SDS011;61651;45.508;12.232;2023-04-03T07:30:51;3.45;;;1.75;;
14007;SDS011;61651;45.508;12.232;2023-04-03T07:33:55;2.55;;;1.40;;
14007;SDS011;61651;45.508;12.232;2023-04-03T07:36:58;8.68;;;2.00;;
14007;SDS011;61651;45.508;12.232;2023-04-03T07:40:01;8.80;;;2.10;;
14007;SDS011;61651;45.508;12.232;2023-04-03T07:43:03;6.28;;;2.17;;
14007;SDS011;61651;45.508;12.232;2023-04-03T07:46:06;3.85;;;1.70;;
14007;SDS011;61651;45.508;12.232;2023-04-03T07:49:08;8.05;;;1.95;;
14007;SDS011;61651;45.508;12.232;2023-04-03T07:52:11;2.65;;;1.58;;
14007;SDS011;61651;45.508;12.232;2023-04-03T07:55:14;6.25;;;1.45;;
14007;SDS011;61651;45.508;12.232;2023-04-03T07:58:17;7.93;;;2.20;;
14007;SDS011;61651;45.508;12.232;2023-04-03T08:01:19;5.60;;;1.90;;
14007;SDS011;61651;45.508;12.232;2023-04-03T08:04:22;5.32;;;2.05;;
14007;SDS011;61651;45.508;12.232;2023-04-03T08:07:25;6.05;;;1.77;;
14007;SDS011;61651;45.508;12.232;2023-04-03T08:10:28;3.15;;;1.70;;
14007;SDS011;61651;45.508;12.232;2023-04-03T08:13:31;1.98;;;1.60;;
14007;SDS011;61651;45.508;12.232;2023-04-03T08:16:34;6.53;;;1.80;;
14007;SDS011;61651;45.508;12.232;2023-04-03T08:19:37;3.95;;;2.15;;
14007;SDS011;61651;45.508;12.232;2023-04-03T08:22:40;6.00;;;2.42;;
14007;SDS011;61651;45.508;12.232;2023-04-03T08:25:42;9.32;;;1.98;;
14007;SDS011;61651;45.508;12.232;2023-04-03T08:28:45;8.95;;;2.67;;
14007;SDS011;61651;45.508;12.232;2023-04-03T08:31:47;2.90;;;1.70;;
14007;SDS011;61651;45.508;12.232;2023-04-03T08:34:49;5.78;;;2.05;;
14007;SDS011;61651;45.508;12.232;2023-04-03T08:37:53;11.55;;;2.38;;
14007;SDS011;61651;45.508;12.232;2023-04-03T08:41:04;3.28;;;2.05;;
14007;SDS011;61651;45.508;12.232;2023-04-03T08:44:17;5.90;;;2.15;;
14007;SDS011;61651;45.508;12.232;2023-04-03T08:47:28;7.38;;;2.40;;
14007;SDS011;61651;45.508;12.232;2023-04-03T08:50:38;9.57;;;2.37;;
14007;SDS011;61651;45.508;12.232;2023-04-03T08:53:44;8.00;;;3.17;;
14007;SDS011;61651;45.508;12.232;2023-04-03T08:56:55;6.70;;;1.90;;
14007;SDS011;61651;45.508;12.232;2023-04-03T09:00:00;11.65;;;2.38;;
14007;SDS011;61651;45.508;12.232;2023-04-03T09:03:05;9.63;;;2.08;;
14007;SDS011;61651;45.508;12.232;2023-04-03T09:06:13;6.95;;;2.15;;
14007;SDS011;61651;45.508;12.232;2023-04-03T09:09:24;8.57;;;1.90;;
14007;SDS011;61651;45.508;12.232;2023-04-03T09:12:34;4.70;;;2.05;;
14007;SDS011;61651;45.508;12.232;2023-04-03T09:15:40;5.50;;;2.22;;
14007;SDS011;61651;45.508;12.232;2023-04-03T09:18:43;3.92;;;1.80;;
14007;SDS011;61651;45.508;12.232;2023-04-03T09:21:49;6.25;;;1.90;;
14007;SDS011;61651;45.508;12.232;2023-04-03T09:24:59;7.88;;;2.30;;
14007;SDS011;61651;45.508;12.232;2023-04-03T09:28:07;10.40;;;2.20;;
14007;SDS011;61651;45.508;12.232;2023-04-03T09:31:15;13.13;;;2.38;;
14007;SDS011;61651;45.508;12.232;2023-04-03T09:34:21;6.65;;;1.60;;
14007;SDS011;61651;45.508;12.232;2023-04-03T09:37:34;5.80;;;2.00;;
14007;SDS011;61651;45.508;12.232;2023-04-03T09:40:40;7.05;;;2.42;;
14007;SDS011;61651;45.508;12.232;2023-04-03T09:43:51;6.65;;;2.15;;
14007;SDS011;61651;45.508;12.232;2023-04-03T09:46:55;5.95;;;2.03;;
14007;SDS011;61651;45.508;12.232;2023-04-03T09:50:08;4.57;;;2.20;;
14007;SDS011;61651;45.508;12.232;2023-04-03T09:53:25;4.00;;;2.10;;
14007;SDS011;61651;45.508;12.232;2023-04-03T09:56:31;5.47;;;2.03;;
14007;SDS011;61651;45.508;12.232;2023-04-03T09:59:34;7.32;;;1.85;;
14007;SDS011;61651;45.508;12.232;2023-04-03T10:02:38;9.75;;;1.95;;
14007;SDS011;61651;45.508;12.232;2023-04-03T10:05:41;4.03;;;1.52;;
14007;SDS011;61651;45.508;12.232;2023-04-03T10:08:43;6.60;;;1.80;;
14007;SDS011;61651;45.508;12.232;2023-04-03T10:12:02;7.10;;;1.80;;
14007;SDS011;61651;45.508;12.232;2023-04-03T10:15:10;5.40;;;2.03;;
14007;SDS011;61651;45.508;12.232;2023-04-03T10:18:19;5.45;;;1.80;;
14007;SDS011;61651;45.508;12.232;2023-04-03T10:21:33;4.47;;;2.20;;
14007;SDS011;61651;45.508;12.232;2023-04-03T10:24:44;5.38;;;2.03;;
14007;SDS011;61651;45.508;12.232;2023-04-03T10:27:56;5.80;;;2.00;;
14007;SDS011;61651;45.508;12.232;2023-04-03T10:31:03;5.28;;;1.85;;
14007;SDS011;61651;45.508;12.232;2023-04-03T10:34:13;4.35;;;1.67;;
14007;SDS011;61651;45.508;12.232;2023-04-03T10:37:23;5.45;;;1.67;;
14007;SDS011;61651;45.508;12.232;2023-04-03T10:40:29;8.00;;;2.08;;
14007;SDS011;61651;45.508;12.232;2023-04-03T10:43:39;5.57;;;1.90;;
14007;SDS011;61651;45.508;12.232;2023-04-03T10:46:47;3.03;;;1.58;;
14007;SDS011;61651;45.508;12.232;2023-04-03T10:49:51;4.95;;;1.98;;
14007;SDS011;61651;45.508;12.232;2023-04-03T10:53:03;6.38;;;2.20;;
14007;SDS011;61651;45.508;12.232;2023-04-03T10:56:10;4.82;;;1.80;;
14007;SDS011;61651;45.508;12.232;2023-04-03T10:59:21;7.60;;;2.13;;
14007;SDS011;61651;45.508;12.232;2023-04-03T11:02:28;3.47;;;1.50;;
14007;SDS011;61651;45.508;12.232;2023-04-03T11:05:34;4.30;;;2.10;;
14007;SDS011;61651;45.508;12.232;2023-04-03T11:08:42;3.25;;;1.55;;
14007;SDS011;61651;45.508;12.232;2023-04-03T11:11:47;7.68;;;2.30;;
14007;SDS011;61651;45.508;12.232;2023-04-03T11:14:53;4.13;;;1.75;;
14007;SDS011;61651;45.508;12.232;2023-04-03T11:17:58;4.30;;;1.50;;
14007;SDS011;61651;45.508;12.232;2023-04-03T11:21:04;4.07;;;1.60;;
14007;SDS011;61651;45.508;12.232;2023-04-03T11:24:12;5.55;;;1.90;;
14007;SDS011;61651;45.508;12.232;2023-04-03T11:27:19;6.25;;;1.75;;
14007;SDS011;61651;45.508;12.232;2023-04-03T11:30:25;5.25;;;1.70;;
14007;SDS011;61651;45.508;12.232;2023-04-03T11:33:37;4.30;;;1.83;;
14007;SDS011;61651;45.508;12.232;2023-04-03T11:36:46;6.53;;;2.35;;
14007;SDS011;61651;45.508;12.232;2023-04-03T11:39:52;4.47;;;1.52;;
14007;SDS011;61651;45.508;12.232;2023-04-03T11:43:02;1.98;;;1.70;;
14007;SDS011;61651;45.508;12.232;2023-04-03T11:46:09;10.02;;;1.83;;
14007;SDS011;61651;45.508;12.232;2023-04-03T11:49:19;10.55;;;2.00;;
14007;SDS011;61651;45.508;12.232;2023-04-03T11:53:02;3.25;;;2.40;;
14007;SDS011;61651;45.508;12.232;2023-04-03T11:56:28;11.23;;;1.73;;
14007;SDS011;61651;45.508;12.232;2023-04-03T11:59:36;5.15;;;1.95;;
14007;SDS011;61651;45.508;12.232;2023-04-03T12:02:40;5.63;;;1.80;;
14007;SDS011;61651;45.508;12.232;2023-04-03T12:05:42;1.63;;;1.30;;
14007;SDS011;61651;45.508;12.232;2023-04-03T12:08:45;5.05;;;1.90;;
14007;SDS011;61651;45.508;12.232;2023-04-03T12:11:48;8.82;;;1.95;;
14007;SDS011;61651;45.508;12.232;2023-04-03T12:14:51;3.42;;;1.50;;
14007;SDS011;61651;45.508;12.232;2023-04-03T12:17:54;4.93;;;1.90;;
14007;SDS011;61651;45.508;12.232;2023-04-03T12:20:56;1.88;;;1.48;;
14007;SDS011;61651;45.508;12.232;2023-04-03T12:24:04;8.00;;;1.90;;
14007;SDS011;61651;45.508;12.232;2023-04-03T12:27:25;4.78;;;1.60;;
14007;SDS011;61651;45.508;12.232;2023-04-03T12:30:30;5.60;;;1.40;;
14007;SDS011;61651;45.508;12.232;2023-04-03T12:33:36;2.25;;;1.88;;
14007;SDS011;61651;45.508;12.232;2023-04-03T12:36:50;3.25;;;1.42;;
14007;SDS011;61651;45.508;12.232;2023-04-03T12:40:02;3.88;;;1.52;;
14007;SDS011;61651;45.508;12.232;2023-04-03T12:43:18;4.00;;;1.65;;
14007;SDS011;61651;45.508;12.232;2023-04-03T12:46:36;3.03;;;1.60;;
14007;SDS011;61651;45.508;12.232;2023-04-03T12:49:42;4.20;;;1.60;;
14007;SDS011;61651;45.508;12.232;2023-04-03T12:52:45;2.47;;;1.30;;
14007;SDS011;61651;45.508;12.232;2023-04-03T12:55:53;6.68;;;1.50;;
14007;SDS011;61651;45.508;12.232;2023-04-03T12:58:56;3.17;;;1.65;;
14007;SDS011;61651;45.508;12.232;2023-04-03T13:02:20;2.70;;;1.38;;
14007;SDS011;61651;45.508;12.232;2023-04-03T13:05:26;1.70;;;1.40;;
14007;SDS011;61651;45.508;12.232;2023-04-03T13:08:29;2.63;;;1.35;;
14007;SDS011;61651;45.508;12.232;2023-04-03T13:11:32;2.35;;;1.20;;
14007;SDS011;61651;45.508;12.232;2023-04-03T13:14:37;5.53;;;1.90;;
14007;SDS011;61651;45.508;12.232;2023-04-03T13:17:41;3.95;;;1.40;;
14007;SDS011;61651;45.508;12.232;2023-04-03T13:20:45;3.95;;;1.30;;
14007;SDS011;61651;45.508;12.232;2023-04-03T13:23:51;5.38;;;1.60;;
14007;SDS011;61651;45.508;12.232;2023-04-03T13:26:55;3.27;;;1.50;;
14007;SDS011;61651;45.508;12.232;2023-04-03T13:29:58;2.78;;;1.23;;
14007;SDS011;61651;45.508;12.232;2023-04-03T13:33:02;3.20;;;2.17;;
14007;SDS011;61651;45.508;12.232;2023-04-03T13:36:10;4.60;;;1.20;;
14007;SDS011;61651;45.508;12.232;2023-04-03T13:39:23;3.47;;;1.88;;
14007;SDS011;61651;45.508;12.232;2023-04-03T13:42:27;1.73;;;1.60;;
14007;SDS011;61651;45.508;12.232;2023-04-03T13:45:31;2.13;;;1.80;;
14007;SDS011;61651;45.508;12.232;2023-04-03T13:48:35;2.88;;;1.48;;
14007;SDS011;61651;45.508;12.232;2023-04-03T13:51:40;2.85;;;1.50;;
14007;SDS011;61651;45.508;12.232;2023-04-03T13:54:42;4.13;;;1.40;;
14007;SDS011;61651;45.508;12.232;2023-04-03T13:57:49;2.60;;;1.35;;
14007;SDS011;61651;45.508;12.232;2023-04-03T14:00:54;3.78;;;1.60;;
14007;SDS011;61651;45.508;12.232;2023-04-03T14:03:58;2.03;;;1.45;;
14007;SDS011;61651;45.508;12.232;2023-04-03T14:07:02;3.90;;;1.30;;
14007;SDS011;61651;45.508;12.232;2023-04-03T14:10:05;2.60;;;1.45;;
14007;SDS011;61651;45.508;12.232;2023-04-03T14:13:09;2.75;;;1.35;;
14007;SDS011;61651;45.508;12.232;2023-04-03T14:16:13;2.20;;;1.52;;
14007;SDS011;61651;45.508;12.232;2023-04-03T14:19:18;1.45;;;1.33;;
14007;SDS011;61651;45.508;12.232;2023-04-03T14:22:24;1.23;;;1.17;;
14007;SDS011;61651;45.508;12.232;2023-04-03T14:25:28;1.42;;;1.33;;
14007;SDS011;61651;45.508;12.232;2023-04-03T14:28:30;3.55;;;1.58;;
14007;SDS011;61651;45.508;12.232;2023-04-03T14:31:34;3.03;;;1.30;;
14007;SDS011;61651;45.508;12.232;2023-04-03T14:34:36;2.17;;;1.55;;
14007;SDS011;61651;45.508;12.232;2023-04-03T14:37:39;4.05;;;1.35;;
14007;SDS011;61651;45.508;12.232;2023-04-03T14:40:41;1.73;;;1.52;;
14007;SDS011;61651;45.508;12.232;2023-04-03T14:43:44;2.22;;;1.30;;
14007;SDS011;61651;45.508;12.232;2023-04-03T14:46:46;3.45;;;1.30;;
14007;SDS011;61651;45.508;12.232;2023-04-03T14:49:48;3.37;;;1.43;;
14007;SDS011;61651;45.508;12.232;2023-04-03T14:52:53;1.52;;;1.42;;
14007;SDS011;61651;45.508;12.232;2023-04-03T14:55:57;1.73;;;1.40;;
14007;SDS011;61651;45.508;12.232;2023-04-03T14:58:59;1.17;;;1.15;;
14007;SDS011;61651;45.508;12.232;2023-04-03T15:02:02;2.00;;;1.20;;
14007;SDS011;61651;45.508;12.232;2023-04-03T15:05:07;1.25;;;1.15;;
14007;SDS011;61651;45.508;12.232;2023-04-03T15:08:19;5.07;;;1.40;;
14007;SDS011;61651;45.508;12.232;2023-04-03T15:11:24;3.38;;;1.63;;
14007;SDS011;61651;45.508;12.232;2023-04-03T15:14:26;3.55;;;1.50;;
14007;SDS011;61651;45.508;12.232;2023-04-03T15:17:28;6.22;;;1.88;;
14007;SDS011;61651;45.508;12.232;2023-04-03T15:20:30;1.67;;;1.30;;
14007;SDS011;61651;45.508;12.232;2023-04-03T15:23:35;1.50;;;1.40;;
14007;SDS011;61651;45.508;12.232;2023-04-03T15:26:37;2.38;;;1.20;;
14007;SDS011;61651;45.508;12.232;2023-04-03T15:29:39;4.10;;;1.55;;
14007;SDS011;61651;45.508;12.232;2023-04-03T15:32:43;1.40;;;1.30;;
14007;SDS011;61651;45.508;12.232;2023-04-03T15:35:45;1.80;;;1.58;;
14007;SDS011;61651;45.508;12.232;2023-04-03T15:38:48;1.50;;;1.25;;
14007;SDS011;61651;45.508;12.232;2023-04-03T15:41:50;2.08;;;1.25;;
14007;SDS011;61651;45.508;12.232;2023-04-03T15:44:53;1.38;;;1.27;;
14007;SDS011;61651;45.508;12.232;2023-04-03T15:47:55;1.50;;;1.35;;
14007;SDS011;61651;45.508;12.232;2023-04-03T15:50:58;4.10;;;1.52;;
14007;SDS011;61651;45.508;12.232;2023-04-03T15:54:02;4.43;;;1.35;;
14007;SDS011;61651;45.508;12.232;2023-04-03T15:57:04;2.40;;;1.30;;
14007;SDS011;61651;45.508;12.232;2023-04-03T16:00:07;1.65;;;1.25;;
14007;SDS011;61651;45.508;12.232;2023-04-03T16:03:10;1.25;;;1.10;;
14007;SDS011;61651;45.508;12.232;2023-04-03T16:06:16;3.40;;;1.55;;
14007;SDS011;61651;45.508;12.232;2023-04-03T16:09:20;2.90;;;1.27;;
14007;SDS011;61651;45.508;12.232;2023-04-03T16:12:22;2.40;;;1.67;;
14007;SDS011;61651;45.508;12.232;2023-04-03T16:15:24;3.22;;;1.60;;
14007;SDS011;61651;45.508;12.232;2023-04-03T16:18:27;1.65;;;1.33;;
14007;SDS011;61651;45.508;12.232;2023-04-03T16:21:29;2.08;;;1.20;;
14007;SDS011;61651;45.508;12.232;2023-04-03T16:24:34;3.63;;;1.45;;
14007;SDS011;61651;45.508;12.232;2023-04-03T16:27:38;5.30;;;1.60;;
14007;SDS011;61651;45.508;12.232;2023-04-03T16:30:40;2.67;;;1.40;;
14007;SDS011;61651;45.508;12.232;2023-04-03T16:33:42;1.60;;;1.25;;
14007;SDS011;61651;45.508;12.232;2023-04-03T16:36:44;1.95;;;1.40;;
14007;SDS011;61651;45.508;12.232;2023-04-03T16:39:48;2.38;;;1.60;;
14007;SDS011;61651;45.508;12.232;2023-04-03T16:42:50;3.25;;;1.60;;
14007;SDS011;61651;45.508;12.232;2023-04-03T16:45:52;5.97;;;1.58;;
14007;SDS011;61651;45.508;12.232;2023-04-03T16:48:54;3.95;;;1.77;;
14007;SDS011;61651;45.508;12.232;2023-04-03T16:51:56;4.00;;;1.70;;
14007;SDS011;61651;45.508;12.232;2023-04-03T16:54:59;2.20;;;1.60;;
14007;SDS011;61651;45.508;12.232;2023-04-03T16:58:01;1.98;;;1.55;;
14007;SDS011;61651;45.508;12.232;2023-04-03T17:01:10;1.40;;;1.30;;
14007;SDS011;61651;45.508;12.232;2023-04-03T17:04:12;4.28;;;1.73;;
14007;SDS011;61651;45.508;12.232;2023-04-03T17:07:14;2.00;;;1.42;;
14007;SDS011;61651;45.508;12.232;2023-04-03T17:10:18;3.33;;;1.60;;
14007;SDS011;61651;45.508;12.232;2023-04-03T17:13:20;1.40;;;1.30;;
14007;SDS011;61651;45.508;12.232;2023-04-03T17:16:22;1.65;;;1.55;;
14007;SDS011;61651;45.508;12.232;2023-04-03T17:19:26;3.13;;;1.55;;
14007;SDS011;61651;45.508;12.232;2023-04-03T17:22:30;4.45;;;1.50;;
14007;SDS011;61651;45.508;12.232;2023-04-03T17:25:34;2.53;;;1.40;;
14007;SDS011;61651;45.508;12.232;2023-04-03T17:28:35;2.17;;;1.50;;
14007;SDS011;61651;45.508;12.232;2023-04-03T17:31:47;1.62;;;1.23;;
14007;SDS011;61651;45.508;12.232;2023-04-03T17:34:49;3.22;;;1.55;;
14007;SDS011;61651;45.508;12.232;2023-04-03T17:37:51;2.30;;;1.52;;
14007;SDS011;61651;45.508;12.232;2023-04-03T17:40:56;3.85;;;1.40;;
14007;SDS011;61651;45.508;12.232;2023-04-03T17:43:58;1.83;;;1.60;;
14007;SDS011;61651;45.508;12.232;2023-04-03T17:47:00;1.50;;;1.40;;
14007;SDS011;61651;45.508;12.232;2023-04-03T17:50:03;3.45;;;1.40;;
14007;SDS011;61651;45.508;12.232;2023-04-03T17:53:06;1.80;;;1.50;;
14007;SDS011;61651;45.508;12.232;2023-04-03T17:56:10;1.70;;;1.60;;
14007;SDS011;61651;45.508;12.232;2023-04-03T17:59:14;2.95;;;1.75;;
14007;SDS011;61651;45.508;12.232;2023-04-03T18:02:16;2.58;;;1.60;;
14007;SDS011;61651;45.508;12.232;2023-04-03T18:05:18;2.28;;;1.52;;
14007;SDS011;61651;45.508;12.232;2023-04-03T18:08:20;1.77;;;1.67;;
14007;SDS011;61651;45.508;12.232;2023-04-03T18:11:24;4.88;;;1.65;;
14007;SDS011;61651;45.508;12.232;2023-04-03T18:14:28;3.05;;;1.58;;
14007;SDS011;61651;45.508;12.232;2023-04-03T18:17:30;2.35;;;1.58;;